createdAt,value
2019-02-20T00:02:30.675Z,7.01
2019-02-20T00:05:01.759Z,6.99
2019-02-20T00:07:32.642Z,6.87
2019-02-20T00:10:03.568Z,6.87
2019-02-20T00:12:34.719Z,6.75
2019-02-20T00:15:07.035Z,6.73
2019-02-20T00:17:37.733Z,6.72
2019-02-20T00:20:08.554Z,6.71
2019-02-20T00:22:40.501Z,6.66
2019-02-20T00:25:11.901Z,6.58
2019-02-20T00:27:43.227Z,6.59
2019-02-20T00:30:14.299Z,6.63
2019-02-20T00:32:45.352Z,6.65
2019-02-20T00:35:16.187Z,6.62
2019-02-20T00:37:47.293Z,6.63
2019-02-20T00:40:18.373Z,6.55
2019-02-20T00:42:49.318Z,6.61
2019-02-20T00:45:42.909Z,6.57
2019-02-20T00:48:37.421Z,6.56
2019-02-20T00:51:18.169Z,6.55
2019-02-20T00:53:52.858Z,6.55
2019-02-20T00:56:23.561Z,6.58
2019-02-20T00:58:54.671Z,6.58
2019-02-20T01:01:25.488Z,6.57
2019-02-20T01:03:56.052Z,6.54
2019-02-20T01:06:26.674Z,6.51
2019-02-20T01:08:58.182Z,6.48
2019-02-20T01:11:29.196Z,6.48
2019-02-20T01:14:01.382Z,6.50
2019-02-20T01:16:32.071Z,6.53
2019-02-20T01:19:02.818Z,6.59
2019-02-20T01:21:33.700Z,6.66
2019-02-20T01:24:04.355Z,6.61
2019-02-20T01:26:36.039Z,6.65
2019-02-20T01:29:06.738Z,6.75
2019-02-20T01:31:37.397Z,6.80
2019-02-20T01:34:08.195Z,6.82
2019-02-20T01:36:39.167Z,6.87
2019-02-20T01:39:09.732Z,6.85
2019-02-20T01:41:43.634Z,6.93
2019-02-20T01:44:14.637Z,6.79
2019-02-20T01:46:46.047Z,6.72
2019-02-20T01:49:17.023Z,6.82
2019-02-20T01:51:48.212Z,6.91
2019-02-20T01:54:19.250Z,7.00
2019-02-20T01:56:50.188Z,6.99
2019-02-20T01:59:20.692Z,7.07
2019-02-20T02:01:51.503Z,7.01
2019-02-20T02:04:22.623Z,6.96
2019-02-20T02:06:53.327Z,6.96
2019-02-20T02:09:24.117Z,7.01
2019-02-20T02:11:57.667Z,6.94
2019-02-20T02:14:28.303Z,6.99
2019-02-20T02:16:59.070Z,6.97
2019-02-20T02:19:29.722Z,6.94
2019-02-20T02:22:00.426Z,6.90
2019-02-20T02:24:32.082Z,6.94
2019-02-20T02:27:02.725Z,6.86
2019-02-20T02:29:34.490Z,6.80
2019-02-20T02:32:05.392Z,6.80
2019-02-20T02:34:36.316Z,6.82
2019-02-20T02:37:07.078Z,6.80
2019-02-20T02:39:37.930Z,6.67
2019-02-20T02:42:08.688Z,6.52
2019-02-20T02:44:39.531Z,6.31
2019-02-20T02:47:10.397Z,6.32
2019-02-20T02:49:41.590Z,6.35
2019-02-20T02:52:12.421Z,6.31
2019-02-20T02:54:43.348Z,6.41
2019-02-20T02:57:14.295Z,6.46
2019-02-20T02:59:45.520Z,6.50
2019-02-20T03:02:16.484Z,6.50
2019-02-20T03:04:47.330Z,6.54
2019-02-20T03:07:21.202Z,6.54
2019-02-20T03:09:52.235Z,6.49
2019-02-20T03:12:24.593Z,6.52
2019-02-20T03:14:55.358Z,6.53
2019-02-20T03:17:26.319Z,6.37
2019-02-20T03:19:57.727Z,6.40
2019-02-20T03:22:28.431Z,6.38
2019-02-20T03:24:59.225Z,6.35
2019-02-20T03:27:31.831Z,6.31
2019-02-20T03:30:02.423Z,6.27
2019-02-20T03:32:33.128Z,6.32
2019-02-20T03:35:03.791Z,6.33
2019-02-20T03:37:34.610Z,6.31
2019-02-20T03:40:05.513Z,6.35
2019-02-20T03:42:36.152Z,6.28
2019-02-20T03:45:06.811Z,6.29
2019-02-20T03:47:37.634Z,6.32
2019-02-20T03:50:08.648Z,6.20
2019-02-20T03:52:39.350Z,6.11
2019-02-20T03:55:10.506Z,6.10
2019-02-20T03:57:41.373Z,6.07
2019-02-20T04:00:12.840Z,5.89
2019-02-20T04:02:43.737Z,5.93
2019-02-20T04:05:14.488Z,5.86
2019-02-20T04:07:45.691Z,5.65
2019-02-20T04:10:16.721Z,5.68
2019-02-20T04:12:47.860Z,5.69
2019-02-20T04:15:19.023Z,5.69
2019-02-20T04:17:49.838Z,5.72
2019-02-20T04:20:20.871Z,5.62
2019-02-20T04:22:51.497Z,5.65
2019-02-20T04:25:22.144Z,5.67
2019-02-20T04:27:52.630Z,5.72
2019-02-20T04:30:23.406Z,5.69
2019-02-20T04:32:54.845Z,5.66
2019-02-20T04:35:25.555Z,5.57
2019-02-20T04:37:56.375Z,5.53
2019-02-20T04:40:28.092Z,5.45
2019-02-20T04:42:58.667Z,5.35
2019-02-20T04:45:29.954Z,5.28
2019-02-20T04:48:01.177Z,5.18
2019-02-20T04:50:32.163Z,5.11
2019-02-20T04:53:02.781Z,5.00
2019-02-20T04:55:33.535Z,4.95
2019-02-20T04:58:24.030Z,4.94
2019-02-20T05:00:55.124Z,4.88
2019-02-20T05:03:25.842Z,4.87
2019-02-20T05:05:56.944Z,4.79
2019-02-20T05:08:27.719Z,4.78
2019-02-20T05:10:58.380Z,4.78
2019-02-20T05:13:28.927Z,4.77
2019-02-20T05:15:59.856Z,4.82
2019-02-20T05:18:30.498Z,4.98
2019-02-20T05:21:01.204Z,5.11
2019-02-20T05:23:31.864Z,5.25
2019-02-20T05:26:02.950Z,5.41
2019-02-20T05:28:33.660Z,5.63
2019-02-20T05:31:04.287Z,5.79
2019-02-20T05:33:36.035Z,5.94
2019-02-20T05:36:06.577Z,6.09
2019-02-20T05:38:37.198Z,6.20
2019-02-20T05:41:08.068Z,6.27
2019-02-20T05:43:40.062Z,6.28
2019-02-20T05:46:20.844Z,6.38
2019-02-20T05:48:51.373Z,6.56
2019-02-20T05:51:22.741Z,6.72
2019-02-20T05:53:54.040Z,6.93
2019-02-20T05:56:26.606Z,7.15
2019-02-20T05:58:57.498Z,7.36
2019-02-20T06:01:28.246Z,7.64
2019-02-20T06:04:00.065Z,8.00
2019-02-20T06:06:31.095Z,8.31
2019-02-20T06:09:21.661Z,8.86
2019-02-20T06:11:53.482Z,9.19
2019-02-20T06:14:24.130Z,9.19
2019-02-20T06:16:55.184Z,9.40
2019-02-20T06:19:26.051Z,9.75
2019-02-20T06:21:56.846Z,9.81
2019-02-20T06:24:27.774Z,9.90
2019-02-20T06:26:58.598Z,10.16
2019-02-20T06:29:29.661Z,10.52
2019-02-20T06:32:00.338Z,10.41
2019-02-20T06:34:31.297Z,9.85
2019-02-20T06:37:01.888Z,9.04
2019-02-20T06:39:32.688Z,9.04
2019-02-20T06:42:03.339Z,8.34
2019-02-20T06:44:34.981Z,8.34
2019-02-20T06:47:25.904Z,8.21
2019-02-20T06:49:56.487Z,7.79
2019-02-20T06:52:26.831Z,7.53
2019-02-20T06:54:57.714Z,7.54
2019-02-20T06:57:28.344Z,7.40
2019-02-20T06:59:59.766Z,7.32
2019-02-20T07:02:30.495Z,7.44
2019-02-20T07:05:31.604Z,7.52
2019-02-20T07:09:09.865Z,7.51
2019-02-20T07:12:19.379Z,7.46
2019-02-20T07:15:36.336Z,7.43
2019-02-20T07:18:55.924Z,7.68
2019-02-20T07:22:09.151Z,7.77
2019-02-20T07:25:13.571Z,8.03
2019-02-20T07:28:37.151Z,8.20
2019-02-20T07:31:07.440Z,8.23
2019-02-20T07:33:38.107Z,8.06
2019-02-20T07:36:09.384Z,8.00
2019-02-20T07:38:40.066Z,8.06
2019-02-20T07:41:10.721Z,8.10
2019-02-20T07:43:42.970Z,8.31
2019-02-20T07:46:13.293Z,8.41
2019-02-20T07:48:44.242Z,8.41
2019-02-20T07:51:15.516Z,8.53
2019-02-20T07:53:46.056Z,8.62
2019-02-20T07:56:16.600Z,8.82
2019-02-20T07:58:47.204Z,8.86
2019-02-20T08:01:17.625Z,9.04
2019-02-20T08:03:48.135Z,8.97
2019-02-20T08:06:18.625Z,9.03
2019-02-20T08:08:48.987Z,9.07
2019-02-20T08:11:19.226Z,9.09
2019-02-20T08:13:49.767Z,9.13
2019-02-20T08:16:21.013Z,9.26
2019-02-20T08:18:51.415Z,9.26
2019-02-20T08:21:21.911Z,9.44
2019-02-20T08:23:52.305Z,9.47
2019-02-20T08:26:22.533Z,9.49
2019-02-20T08:28:52.983Z,9.83
2019-02-20T08:31:23.924Z,9.83
2019-02-20T08:33:54.445Z,9.93
2019-02-20T08:36:24.977Z,9.70
2019-02-20T08:38:55.690Z,10.10
2019-02-20T08:41:26.114Z,10.10
2019-02-20T08:43:56.406Z,10.51
2019-02-20T08:46:26.589Z,10.78
2019-02-20T08:48:56.986Z,11.08
2019-02-20T08:51:27.708Z,11.35
2019-02-20T08:53:57.943Z,11.54
2019-02-20T08:56:28.397Z,11.66
2019-02-20T08:58:58.803Z,11.73
2019-02-20T09:01:29.137Z,11.84
2019-02-20T09:04:02.781Z,11.82
2019-02-20T09:06:33.589Z,11.95
2019-02-20T09:09:05.899Z,12.08
2019-02-20T09:11:36.416Z,12.18
2019-02-20T09:14:06.591Z,12.23
2019-02-20T09:16:36.908Z,12.43
2019-02-20T09:19:07.559Z,12.43
2019-02-20T09:21:38.153Z,12.53
2019-02-20T09:24:09.203Z,12.53
2019-02-20T09:26:39.920Z,12.63
2019-02-20T09:29:10.811Z,12.66
2019-02-20T09:31:45.067Z,12.73
2019-02-20T09:34:22.017Z,12.71
2019-02-20T09:36:54.067Z,12.86
2019-02-20T09:39:40.775Z,12.86
2019-02-20T09:42:12.875Z,12.90
2019-02-20T09:44:46.187Z,13.04
2019-02-20T09:47:16.592Z,13.21
2019-02-20T09:49:47.261Z,13.34
2019-02-20T09:52:17.677Z,12.88
2019-02-20T09:54:47.924Z,12.83
2019-02-20T09:57:18.577Z,12.89
2019-02-20T09:59:48.907Z,12.89
2019-02-20T10:02:22.246Z,12.70
2019-02-20T10:04:56.680Z,12.44
2019-02-20T10:07:28.632Z,12.25
2019-02-20T10:09:59.010Z,12.06
2019-02-20T10:12:29.574Z,11.79
2019-02-20T10:14:59.916Z,11.85
2019-02-20T10:17:30.188Z,11.80
2019-02-20T10:20:02.824Z,11.84
2019-02-20T10:22:33.266Z,11.87
2019-02-20T10:25:06.321Z,11.86
2019-02-20T10:27:36.836Z,11.89
2019-02-20T10:30:14.571Z,11.97
2019-02-20T10:32:45.371Z,12.05
2019-02-20T10:35:16.007Z,12.19
2019-02-20T10:37:46.827Z,12.18
2019-02-20T10:40:17.473Z,12.20
2019-02-20T10:42:47.905Z,12.33
2019-02-20T10:45:19.081Z,12.42
2019-02-20T10:47:50.637Z,12.56
2019-02-20T10:50:23.790Z,12.72
2019-02-20T10:52:54.613Z,12.86
2019-02-20T10:55:25.259Z,12.91
2019-02-20T10:58:01.029Z,13.06
2019-02-20T11:00:31.536Z,13.15
2019-02-20T11:03:02.288Z,13.20
2019-02-20T11:05:33.413Z,13.21
2019-02-20T11:08:03.992Z,13.34
2019-02-20T11:10:34.253Z,13.40
2019-02-20T11:13:04.575Z,13.31
2019-02-20T11:15:36.360Z,13.18
2019-02-20T11:18:06.838Z,12.81
2019-02-20T11:20:38.044Z,12.82
2019-02-20T11:23:08.566Z,12.81
2019-02-20T11:25:39.073Z,12.39
2019-02-20T11:28:09.503Z,12.22
2019-02-20T11:30:40.374Z,12.23
2019-02-20T11:33:10.666Z,12.03
2019-02-20T11:35:41.005Z,11.72
2019-02-20T11:38:11.631Z,11.40
2019-02-20T11:40:42.955Z,11.03
2019-02-20T11:43:13.317Z,10.83
2019-02-20T11:45:43.837Z,10.61
2019-02-20T11:48:16.195Z,10.71
2019-02-20T11:50:46.772Z,10.71
2019-02-20T11:53:17.245Z,10.85
2019-02-20T11:55:48.610Z,10.77
2019-02-20T11:58:18.918Z,10.94
2019-02-20T12:00:49.487Z,11.00
2019-02-20T12:03:20.789Z,11.17
2019-02-20T12:05:51.158Z,11.31
2019-02-20T12:08:22.041Z,11.32
2019-02-20T12:10:52.903Z,11.32
2019-02-20T12:13:23.349Z,11.15
2019-02-20T12:15:53.879Z,10.71
2019-02-20T12:18:24.545Z,10.69
2019-02-20T12:20:55.878Z,10.71
2019-02-20T12:23:36.509Z,10.81
2019-02-20T12:26:03.656Z,10.87
2019-02-20T12:28:34.095Z,10.96
2019-02-20T12:31:04.611Z,11.01
2019-02-20T12:33:35.190Z,11.04
2019-02-20T12:36:05.611Z,11.20
2019-02-20T12:38:37.196Z,11.22
2019-02-20T12:41:07.823Z,11.26
2019-02-20T12:43:38.451Z,11.41
2019-02-20T12:46:08.936Z,11.25
2019-02-20T12:48:39.678Z,11.45
2019-02-20T12:51:11.181Z,11.57
2019-02-20T12:53:43.536Z,11.45
2019-02-20T12:56:14.103Z,11.44
2019-02-20T12:58:44.720Z,11.51
2019-02-20T13:01:16.486Z,11.50
2019-02-20T13:03:46.915Z,11.34
2019-02-20T13:06:18.226Z,11.38
2019-02-20T13:08:48.742Z,11.49
2019-02-20T13:11:19.626Z,11.49
2019-02-20T13:13:50.523Z,11.58
2019-02-20T13:16:21.108Z,11.68
2019-02-20T13:18:51.740Z,11.74
2019-02-20T13:21:22.431Z,11.78
2019-02-20T13:23:53.075Z,11.94
2019-02-20T13:26:23.503Z,12.03
2019-02-20T13:28:54.314Z,12.04
2019-02-20T13:31:24.745Z,12.16
2019-02-20T13:33:55.305Z,12.17
2019-02-20T13:36:26.413Z,12.21
2019-02-20T13:38:57.634Z,12.35
2019-02-20T13:41:28.220Z,12.32
2019-02-20T13:43:59.800Z,12.44
2019-02-20T13:46:30.492Z,12.41
2019-02-20T13:49:01.028Z,12.26
2019-02-20T13:51:32.488Z,12.33
2019-02-20T13:54:02.884Z,12.26
2019-02-20T13:56:33.440Z,12.33
2019-02-20T13:59:04.317Z,12.45
2019-02-20T14:01:34.887Z,12.60
2019-02-20T14:04:05.609Z,12.71
2019-02-20T14:06:36.222Z,12.88
2019-02-20T14:09:07.518Z,13.12
2019-02-20T14:11:38.050Z,13.37
2019-02-20T14:14:09.082Z,13.62
2019-02-20T14:16:39.911Z,13.90
2019-02-20T14:19:10.442Z,14.24
2019-02-20T14:21:41.093Z,14.41
2019-02-20T14:24:13.199Z,14.50
2019-02-20T14:26:47.090Z,14.56
2019-02-20T14:29:17.747Z,14.55
2019-02-20T14:31:49.644Z,14.28
2019-02-20T14:34:19.977Z,13.73
2019-02-20T14:36:50.627Z,13.57
2019-02-20T14:39:21.476Z,13.43
2019-02-20T14:41:52.097Z,13.25
2019-02-20T14:44:23.565Z,13.32
2019-02-20T14:46:54.427Z,13.42
2019-02-20T14:49:25.266Z,13.61
2019-02-20T14:51:56.052Z,13.75
2019-02-20T14:54:26.520Z,13.83
2019-02-20T14:56:57.123Z,13.92
2019-02-20T14:59:27.781Z,14.06
2019-02-20T15:01:58.418Z,14.13
2019-02-20T15:04:29.283Z,14.20
2019-02-20T15:06:59.892Z,14.35
2019-02-20T15:09:30.275Z,14.38
2019-02-20T15:12:00.964Z,14.47
2019-02-20T15:14:31.415Z,14.55
2019-02-20T15:17:01.777Z,14.55
2019-02-20T15:19:32.615Z,14.58
2019-02-20T15:22:03.246Z,14.65
2019-02-20T15:24:33.562Z,14.65
2019-02-20T15:27:03.959Z,14.56
2019-02-20T15:29:35.944Z,14.54
2019-02-20T15:32:06.410Z,14.57
2019-02-20T15:34:37.018Z,14.55
2019-02-20T15:37:07.473Z,14.56
2019-02-20T15:39:39.933Z,14.50
2019-02-20T15:42:11.019Z,14.46
2019-02-20T15:44:41.556Z,14.36
2019-02-20T15:47:11.909Z,14.25
2019-02-20T15:49:42.252Z,14.25
2019-02-20T15:52:12.960Z,14.23
2019-02-20T15:54:43.313Z,14.15
2019-02-20T15:57:14.048Z,14.10
2019-02-20T15:59:44.442Z,14.12
2019-02-20T16:02:14.898Z,14.09
2019-02-20T16:04:45.231Z,14.02
2019-02-20T16:07:15.545Z,13.95
2019-02-20T16:09:45.790Z,13.86
2019-02-20T16:12:16.519Z,13.93
2019-02-20T16:14:48.539Z,13.85
2019-02-20T16:17:19.057Z,13.76
2019-02-20T16:19:49.965Z,13.73
2019-02-20T16:22:20.420Z,13.71
2019-02-20T16:24:51.158Z,13.64
2019-02-20T16:27:21.796Z,13.60
2019-02-20T16:29:53.246Z,13.58
2019-02-20T16:32:24.315Z,13.57
2019-02-20T16:34:57.532Z,13.47
2019-02-20T16:37:28.316Z,13.41
2019-02-20T16:39:58.713Z,13.39
2019-02-20T16:42:29.830Z,13.30
2019-02-20T16:45:00.519Z,13.26
2019-02-20T16:47:31.456Z,13.22
2019-02-20T16:50:02.245Z,13.21
2019-02-20T16:52:33.045Z,13.18
2019-02-20T16:55:04.013Z,13.08
2019-02-20T16:57:35.078Z,13.14
2019-02-20T17:00:06.658Z,13.13
2019-02-20T17:02:37.310Z,13.10
2019-02-20T17:05:13.073Z,13.10
2019-02-20T17:07:41.604Z,13.07
2019-02-20T17:10:12.249Z,12.97
2019-02-20T17:12:43.119Z,12.96
2019-02-20T17:15:16.124Z,12.87
2019-02-20T17:17:46.957Z,12.85
2019-02-20T17:20:18.576Z,12.77
2019-02-20T17:22:49.732Z,12.68
2019-02-20T17:25:20.861Z,12.64
2019-02-20T17:27:51.817Z,12.50
2019-02-20T17:30:22.376Z,12.38
2019-02-20T17:32:54.418Z,12.27
2019-02-20T17:35:25.151Z,12.08
2019-02-20T17:37:55.824Z,11.87
2019-02-20T17:40:26.870Z,11.71
2019-02-20T17:42:58.175Z,11.60
2019-02-20T17:45:29.043Z,11.51
2019-02-20T17:48:00.023Z,11.42
2019-02-20T17:50:30.813Z,11.36
2019-02-20T17:53:02.169Z,11.29
2019-02-20T17:55:33.277Z,11.29
2019-02-20T17:58:04.533Z,11.31
2019-02-20T18:00:38.300Z,11.33
2019-02-20T18:03:10.217Z,11.34
2019-02-20T18:05:41.200Z,11.42
2019-02-20T18:08:12.352Z,11.54
2019-02-20T18:10:44.834Z,11.60
2019-02-20T18:13:15.473Z,11.64
2019-02-20T18:15:48.062Z,11.68
2019-02-20T18:18:22.119Z,11.67
2019-02-20T18:20:53.168Z,11.72
2019-02-20T18:23:24.101Z,11.70
2019-02-20T18:25:56.915Z,11.68
2019-02-20T18:28:28.238Z,11.65
2019-02-20T18:30:59.179Z,11.59
2019-02-20T18:33:32.716Z,11.59
2019-02-20T18:36:03.824Z,11.45
2019-02-20T18:38:34.710Z,11.48
2019-02-20T18:41:05.714Z,11.39
2019-02-20T18:43:36.755Z,11.38
2019-02-20T18:46:08.058Z,11.34
2019-02-20T18:48:40.375Z,11.30
2019-02-20T18:51:12.940Z,11.24
2019-02-20T18:53:45.008Z,11.17
2019-02-20T18:56:16.771Z,11.10
2019-02-20T18:58:50.576Z,11.01
2019-02-20T19:01:26.653Z,10.91
2019-02-20T19:03:58.009Z,10.83
2019-02-20T19:06:28.986Z,10.77
2019-02-20T19:09:08.157Z,10.66
2019-02-20T19:12:17.964Z,10.62
2019-02-20T19:15:19.151Z,10.55
2019-02-20T19:18:26.327Z,10.51
2019-02-20T19:21:39.218Z,10.40
2019-02-20T19:24:56.547Z,10.32
2019-02-20T19:28:06.679Z,10.32
2019-02-20T19:31:30.281Z,10.15
2019-02-20T19:34:56.110Z,10.07
2019-02-20T19:37:52.921Z,10.07
2019-02-20T19:41:06.099Z,9.96
2019-02-20T19:43:58.519Z,9.93
2019-02-20T19:47:04.800Z,9.92
2019-02-20T19:50:22.584Z,9.98
2019-02-20T19:53:06.653Z,9.98
2019-02-20T19:55:53.429Z,9.98
2019-02-20T19:58:59.435Z,10.03
2019-02-20T20:02:11.858Z,10.02
2019-02-20T20:05:22.525Z,10.02
2019-02-20T20:08:17.976Z,10.04
2019-02-20T20:11:31.243Z,10.04
2019-02-20T20:14:41.744Z,9.98
2019-02-20T20:17:45.789Z,10.02
2019-02-20T20:20:39.188Z,10.17
2019-02-20T20:23:40.940Z,10.17
2019-02-20T20:26:51.969Z,10.17
2019-02-20T20:30:24.535Z,10.17
2019-02-20T20:33:33.568Z,10.10
2019-02-20T20:36:27.523Z,10.10
2019-02-20T20:39:50.948Z,10.13
2019-02-20T20:43:00.582Z,10.04
2019-02-20T20:46:29.378Z,10.02
2019-02-20T20:49:32.421Z,9.95
2019-02-20T20:52:51.577Z,9.95
2019-02-20T20:56:12.998Z,9.75
2019-02-20T20:59:17.181Z,9.69
2019-02-20T21:01:56.065Z,9.69
2019-02-20T21:05:13.065Z,9.79
2019-02-20T21:08:39.404Z,9.75
2019-02-20T21:11:37.360Z,9.77
2019-02-20T21:14:15.072Z,9.72
2019-02-20T21:17:39.557Z,9.72
2019-02-20T21:20:46.128Z,9.70
2019-02-20T21:23:51.921Z,9.63
2019-02-20T21:27:21.192Z,9.63
2019-02-20T21:30:53.377Z,9.57
2019-02-20T21:33:59.120Z,9.57
2019-02-20T21:36:50.883Z,9.65
2019-02-20T21:39:58.574Z,9.65
2019-02-20T21:42:51.011Z,9.65
2019-02-20T21:46:11.522Z,9.65
2019-02-20T21:49:03.903Z,9.62
2019-02-20T21:51:57.938Z,9.56
2019-02-20T21:55:12.536Z,9.56
2019-02-20T21:58:24.951Z,9.59
2019-02-20T22:01:54.869Z,9.53
2019-02-20T22:05:00.406Z,9.53
2019-02-20T22:08:11.772Z,9.53
2019-02-20T22:11:33.811Z,9.53
2019-02-20T22:14:47.661Z,9.54
2019-02-20T22:17:48.593Z,9.57
2019-02-20T22:20:48.732Z,9.55
2019-02-20T22:24:00.119Z,9.55
2019-02-20T22:27:29.629Z,9.50
2019-02-20T22:30:42.354Z,9.50
2019-02-20T22:33:24.966Z,9.47
2019-02-20T22:36:38.899Z,9.47
2019-02-20T22:39:38.941Z,9.50
2019-02-20T22:43:12.318Z,9.50
2019-02-20T22:46:01.356Z,9.53
2019-02-20T22:49:10.879Z,9.53
2019-02-20T22:52:35.161Z,9.51
2019-02-20T22:56:11.988Z,9.40
2019-02-20T22:58:54.635Z,9.40
2019-02-20T23:02:05.635Z,9.50
2019-02-20T23:05:24.097Z,9.50
2019-02-20T23:08:04.041Z,9.48
2019-02-20T23:11:19.140Z,9.52
2019-02-20T23:14:33.661Z,9.56
2019-02-20T23:17:05.353Z,9.57
2019-02-20T23:19:36.743Z,9.57
2019-02-20T23:22:07.866Z,9.57
2019-02-20T23:24:38.484Z,9.56
2019-02-20T23:27:10.201Z,9.56
2019-02-20T23:29:41.104Z,9.45
2019-02-20T23:32:11.967Z,9.42
2019-02-20T23:34:42.898Z,9.42
2019-02-20T23:37:13.658Z,9.37
2019-02-20T23:39:44.208Z,9.30
2019-02-20T23:42:16.512Z,9.31
2019-02-20T23:44:47.303Z,9.24
2019-02-20T23:47:17.908Z,9.12
2019-02-20T23:49:48.666Z,9.04
2019-02-20T23:52:19.242Z,9.02
2019-02-20T23:54:52.085Z,8.97
2019-02-20T23:57:22.977Z,8.98
2019-02-20T23:59:54.478Z,9.03
